logo tempoitalia

Diretta Meteo Forth Worth Spinks, Stati Uniti (USA)lunedì 31 agosto ore 01:35

Mappa
Sereno 28 °C Sereno 24 Ore: T.min 25 T.max 39
Ponente Sud Km/h 11.1 Punto di rugiada: 17 °C Umidità: 51% Visibilità: 10 Km
Il sole sorge alle: 07:03 Il sole tramonta alle: 19:55
31 Agosto 2026 01:35 tempo osservato: Sereno Sereno 28 51 1015 vento: Nord S 11.1
31 Agosto 2026 01:15 tempo osservato: Sereno Sereno 27 54 1015 vento: Nord S 11.1
31 Agosto 2026 00:55 tempo osservato: Sereno Sereno 28 48 1015 vento: Nord S 9.3
31 Agosto 2026 00:35 tempo osservato: Sereno Sereno 28 48 1015 vento: Nord S 7.4
31 Agosto 2026 00:15 tempo osservato: Sereno Sereno 28 48 1015 vento: Nord S 9.3
30 Agosto 2026 23:55 tempo osservato: Sereno Sereno 28 48 1014 vento: Nord S 9.3
30 Agosto 2026 23:35 tempo osservato: Sereno Sereno 29 45 1014 vento: Nord S 11.1
30 Agosto 2026 23:15 tempo osservato: Sereno Sereno 27 50 1014 vento: Nord S 9.3
30 Agosto 2026 22:55 tempo osservato: Sereno Sereno 28 48 1014 vento: Nord S 7.4
30 Agosto 2026 22:35 tempo osservato: Sereno Sereno 27 50 1014 vento: Nord N 5.5
30 Agosto 2026 22:15 tempo osservato: Sereno Sereno 28 48 1014 vento: Nord S/SE 7.4
30 Agosto 2026 21:55 tempo osservato: Sereno Sereno 28 48 1014 vento: Nord S/SE 9.3
30 Agosto 2026 21:35 tempo osservato: Poco Nuvoloso Poco Nuvoloso 28 48 1014 vento: Nord S/SE 7.4
30 Agosto 2026 21:15 tempo osservato: Poco Nuvoloso Poco Nuvoloso 29 45 1013 vento: Nord N 5.5
30 Agosto 2026 20:55 tempo osservato: Sereno Sereno 30 40 1013 vento: Nord SE 7.4
30 Agosto 2026 20:35 tempo osservato: Sereno Sereno 31 37 1012 vento: Nord N 5.5
30 Agosto 2026 20:15 tempo osservato: Sereno Sereno 31 35 1012 vento: Nord S 9.3
30 Agosto 2026 19:55 tempo osservato: Sereno Sereno 34 30 1012 vento: Nord S 11.1
30 Agosto 2026 18:51 tempo osservato: Sereno Sereno 36 28 1012 vento: Nord S/SE 20.3
30 Agosto 2026 17:50 tempo osservato: Sereno Sereno 38 24 1012 vento: Nord S/SE 25.9
30 Agosto 2026 16:40 tempo osservato: Sereno Sereno 38 25 1012 vento: Nord S/SE 20.3
30 Agosto 2026 15:56 tempo osservato: Sereno Sereno 38 25 1013 vento: Nord S/SE 20.3
30 Agosto 2026 14:47 tempo osservato: Sereno Sereno 39 24 1014 vento: Nord S/SE 22.2
30 Agosto 2026 13:55 tempo osservato: Sereno Sereno 37 28 1015 vento: Nord S 13
30 Agosto 2026 12:55 tempo osservato: Sereno Sereno 37 28 1016 vento: Nord S 22.2
30 Agosto 2026 12:47 tempo osservato: Sereno Sereno 37 28 1016 vento: Nord S/SO 16.7
30 Agosto 2026 11:52 tempo osservato: Sereno Sereno 36 30 1017 vento: Nord S 20.3
30 Agosto 2026 10:54 tempo osservato: Sereno Sereno 34 41 1017 vento: Nord S 16.7
30 Agosto 2026 09:55 tempo osservato: Sereno Sereno 32 49 1017 vento: Nord S 11.1
30 Agosto 2026 08:48 tempo osservato: Sereno Sereno 29 62 1017 vento: Nord S/SO 11.1
30 Agosto 2026 07:51 tempo osservato: Sereno Sereno 26 73 1016 vento: Nord S/SO 11.1
30 Agosto 2026 06:50 tempo osservato: Sereno Sereno 26 73 1016 vento: Nord S/SO 11.1
30 Agosto 2026 06:35 tempo osservato: Sereno Sereno 25 78 1015 vento: Nord S/SO 9.3
30 Agosto 2026 06:15 tempo osservato: Sereno Sereno 26 73 1015 vento: Nord S/SO 9.3
30 Agosto 2026 05:55 tempo osservato: Sereno Sereno 26 73 1015 vento: Nord S/SO 11.1
30 Agosto 2026 05:35 tempo osservato: Sereno Sereno 26 73 1015 vento: Nord S 13
30 Agosto 2026 05:15 tempo osservato: Sereno Sereno 26 69 1015 vento: Nord S/SO 11.1
30 Agosto 2026 04:55 tempo osservato: Sereno Sereno 26 69 1015 vento: Nord S/SO 11.1
30 Agosto 2026 04:35 tempo osservato: Sereno Sereno 26 69 1015 vento: Nord S 9.3
30 Agosto 2026 04:15 tempo osservato: Sereno Sereno 27 65 1015 vento: Nord S/SO 9.3
30 Agosto 2026 03:55 tempo osservato: Sereno Sereno 27 61 1015 vento: Nord S/SO 9.3
30 Agosto 2026 03:35 tempo osservato: Sereno Sereno 27 61 1015 vento: Nord S/SO 11.1
30 Agosto 2026 03:15 tempo osservato: Sereno Sereno 28 58 1015 vento: Nord SO 13
30 Agosto 2026 02:55 tempo osservato: Sereno Sereno 29 54 1015 vento: Nord S/SO 16.7
30 Agosto 2026 02:35 tempo osservato: Sereno Sereno 29 54 1015 vento: Nord S/SO 16.7
30 Agosto 2026 02:15 tempo osservato: Sereno Sereno 29 51 1015 vento: Nord S/SO 14.8
30 Agosto 2026 01:55 tempo osservato: Sereno Sereno 29 51 1015 vento: Nord S/SO 13
30 Agosto 2026 01:35 tempo osservato: Sereno Sereno 29 51 1015 vento: Nord S 11.1